createdAt,value
2023-01-12T00:01:26.262Z,3.20
2023-01-12T00:06:32.015Z,3.20
2023-01-12T00:11:36.608Z,3.60
2023-01-12T00:16:39.590Z,3.53
2023-01-12T00:21:58.191Z,3.30
2023-01-12T00:27:05.364Z,3.13
2023-01-12T00:32:12.158Z,3.07
2023-01-12T00:37:14.862Z,3.13
2023-01-12T00:42:36.322Z,3.50
2023-01-12T00:47:39.312Z,3.00
2023-01-12T00:52:41.888Z,3.00
2023-01-12T00:57:45.960Z,3.17
2023-01-12T01:02:48.601Z,2.70
2023-01-12T01:07:51.186Z,3.10
2023-01-12T01:12:55.059Z,3.38
2023-01-12T01:17:57.649Z,3.40
2023-01-12T01:23:00.239Z,3.65
2023-01-12T01:28:04.302Z,3.35
2023-01-12T01:33:06.861Z,3.67
2023-01-12T01:38:10.688Z,3.75
2023-01-12T01:43:17.309Z,3.60
2023-01-12T01:48:19.888Z,3.60
2023-01-12T01:53:25.773Z,3.90
2023-01-12T01:58:35.227Z,3.33
2023-01-12T02:03:39.349Z,3.60
2023-01-12T02:08:50.019Z,3.88
2023-01-12T02:14:11.280Z,4.25
2023-01-12T02:19:35.147Z,4.03
2023-01-12T02:25:22.900Z,4.40
2023-01-12T02:30:47.247Z,4.00
2023-01-12T02:35:59.840Z,4.22
2023-01-12T02:41:10.953Z,4.05
2023-01-12T02:46:22.712Z,3.80
2023-01-12T02:51:33.395Z,4.10
2023-01-12T02:56:40.918Z,3.73
2023-01-12T03:01:48.469Z,3.60
2023-01-12T03:07:20.102Z,4.33
2023-01-12T03:12:27.982Z,4.50
2023-01-12T03:17:37.477Z,3.67
2023-01-12T03:22:43.175Z,4.47
2023-01-12T03:27:49.213Z,4.40
2023-01-12T03:32:52.807Z,3.80
2023-01-12T03:38:00.811Z,4.20
2023-01-12T03:43:09.648Z,3.80
2023-01-12T03:48:17.032Z,3.83
2023-01-12T03:53:23.652Z,4.40
2023-01-12T03:58:27.115Z,3.55
2023-01-12T04:03:30.155Z,3.80
2023-01-12T04:08:34.337Z,3.38
2023-01-12T04:13:37.453Z,3.83
2023-01-12T04:18:40.384Z,3.60
2023-01-12T04:24:02.481Z,3.83
2023-01-12T04:29:06.847Z,3.83
2023-01-12T04:34:20.709Z,3.50
2023-01-12T04:39:27.623Z,3.50
2023-01-12T04:44:35.011Z,3.27
2023-01-12T04:49:38.102Z,3.20
2023-01-12T04:54:44.969Z,3.00
2023-01-12T04:59:50.791Z,3.15
2023-01-12T05:04:53.945Z,3.20
2023-01-12T05:10:15.607Z,3.03
2023-01-12T05:15:18.890Z,2.78
2023-01-12T05:20:21.954Z,2.80
2023-01-12T05:25:26.828Z,2.55
2023-01-12T05:30:32.240Z,2.97
2023-01-12T05:35:35.239Z,2.80
2023-01-12T05:40:39.446Z,2.60
2023-01-12T05:45:42.302Z,2.30
2023-01-12T05:50:45.204Z,2.67
2023-01-12T05:55:49.841Z,2.88
2023-01-12T06:00:52.827Z,3.00
2023-01-12T06:05:58.340Z,2.80
2023-01-12T06:11:04.481Z,2.60
2023-01-12T06:16:11.763Z,2.67
2023-01-12T06:21:17.091Z,3.00
2023-01-12T06:26:22.061Z,2.20
2023-01-12T06:31:24.900Z,2.58
2023-01-12T06:36:27.724Z,2.60
2023-01-12T06:41:49.371Z,2.58
2023-01-12T06:46:52.324Z,2.40
2023-01-12T06:51:55.453Z,2.45
2023-01-12T06:57:00.039Z,2.53
2023-01-12T07:02:03.071Z,2.90
2023-01-12T07:07:06.620Z,2.70
2023-01-12T07:12:11.091Z,2.65
2023-01-12T07:17:13.847Z,2.83
2023-01-12T07:22:16.958Z,2.95
2023-01-12T07:27:21.053Z,2.50
2023-01-12T07:32:26.696Z,2.55
2023-01-12T07:37:29.368Z,3.20
2023-01-12T07:42:33.537Z,2.47
2023-01-12T07:47:40.459Z,3.83
2023-01-12T07:52:43.174Z,3.00
2023-01-12T07:57:54.624Z,2.00
2023-01-12T08:03:07.485Z,2.08
2023-01-12T08:08:12.549Z,1.80
2023-01-12T08:13:17.087Z,2.07
2023-01-12T08:18:23.673Z,1.90
2023-01-12T08:23:31.555Z,1.90
2023-01-12T08:28:39.158Z,2.03
2023-01-12T08:33:43.147Z,1.80
2023-01-12T08:38:49.195Z,1.80
2023-01-12T08:44:07.077Z,1.70
2023-01-12T08:49:11.832Z,1.80
2023-01-12T08:54:21.204Z,1.80
2023-01-12T08:59:32.529Z,1.60
2023-01-12T09:04:35.235Z,1.50
2023-01-12T09:09:40.180Z,1.60
2023-01-12T09:14:47.200Z,1.60
2023-01-12T09:19:50.734Z,1.35
2023-01-12T09:24:53.526Z,2.00
2023-01-12T09:29:57.547Z,1.60
2023-01-12T09:35:00.477Z,1.50
2023-01-12T09:40:04.376Z,1.60
2023-01-12T09:45:33.104Z,1.35
2023-01-12T09:50:45.413Z,1.30
2023-01-12T09:55:54.942Z,1.98
2023-01-12T10:01:02.446Z,2.25
2023-01-12T10:06:08.764Z,1.67
2023-01-12T10:11:20.902Z,1.52
2023-01-12T10:16:32.467Z,1.40
2023-01-12T10:21:37.874Z,1.60
2023-01-12T10:26:43.687Z,1.40
2023-01-12T10:31:47.858Z,1.80
2023-01-12T10:36:55.677Z,1.50
2023-01-12T10:42:37.555Z,1.55
2023-01-12T10:47:43.045Z,1.30
2023-01-12T10:52:46.567Z,1.80
2023-01-12T10:57:52.215Z,1.80
2023-01-12T11:02:58.564Z,1.70
2023-01-12T11:08:02.050Z,1.58
2023-01-12T11:13:08.858Z,1.60
2023-01-12T11:18:33.138Z,1.45
2023-01-12T11:23:42.413Z,1.30
2023-01-12T11:28:50.030Z,1.50
2023-01-12T11:33:59.454Z,1.40
2023-01-12T11:39:08.794Z,1.42
2023-01-12T11:44:21.066Z,1.40
2023-01-12T11:49:30.269Z,1.60
2023-01-12T11:54:33.363Z,1.50
2023-01-12T11:59:45.133Z,1.60
2023-01-12T12:05:00.755Z,1.42
2023-01-12T12:10:24.692Z,1.43
2023-01-12T12:15:33.028Z,1.80
2023-01-12T12:20:46.460Z,1.20
2023-01-12T12:26:01.848Z,1.80
2023-01-12T12:31:40.392Z,1.40
2023-01-12T12:36:51.271Z,1.65
2023-01-12T12:42:20.300Z,1.60
2023-01-12T12:47:45.445Z,1.60
2023-01-12T12:53:05.796Z,1.30
2023-01-12T12:58:30.931Z,1.40
2023-01-12T13:03:50.315Z,1.10
2023-01-12T13:08:56.147Z,1.20
2023-01-12T13:14:01.447Z,1.15
2023-01-12T13:19:06.195Z,1.33
2023-01-12T13:24:26.875Z,1.30
2023-01-12T13:29:39.688Z,1.20
2023-01-12T13:34:46.394Z,1.50
2023-01-12T13:39:56.694Z,1.87
2023-01-12T13:45:03.729Z,1.30
2023-01-12T13:50:14.700Z,1.30
2023-01-12T13:55:27.476Z,1.40
2023-01-12T14:00:47.004Z,1.40
2023-01-12T14:06:05.108Z,1.20
2023-01-12T14:11:25.758Z,1.20
2023-01-12T14:17:14.204Z,1.60
2023-01-12T14:22:21.389Z,1.30
2023-01-12T14:27:27.631Z,1.30
2023-01-12T14:32:31.732Z,1.30
2023-01-12T14:37:39.165Z,1.33
2023-01-12T14:43:03.635Z,1.30
2023-01-12T14:48:42.510Z,1.20
2023-01-12T14:53:46.852Z,1.30
2023-01-12T14:59:05.958Z,1.40
2023-01-12T15:04:17.405Z,1.30
2023-01-12T15:09:30.704Z,1.30
2023-01-12T15:14:34.893Z,1.35
2023-01-12T15:19:55.318Z,1.52
2023-01-12T15:25:18.481Z,1.40
2023-01-12T15:30:40.810Z,1.40
2023-01-12T15:35:47.100Z,1.35
2023-01-12T15:40:51.733Z,1.50
2023-01-12T15:45:56.495Z,1.60
2023-01-12T15:50:59.258Z,1.45
2023-01-12T15:56:02.070Z,1.90
2023-01-12T16:01:10.712Z,1.30
2023-01-12T16:06:13.764Z,1.60
2023-01-12T16:11:24.209Z,1.33
2023-01-12T16:16:29.104Z,1.30
2023-01-12T16:21:31.970Z,1.30
2023-01-12T16:26:34.852Z,1.48
2023-01-12T16:31:41.721Z,1.45
2023-01-12T16:37:03.957Z,1.30
2023-01-12T16:42:18.032Z,1.50
2023-01-12T16:47:24.371Z,1.60
2023-01-12T16:52:27.619Z,1.50
2023-01-12T16:57:32.786Z,1.40
2023-01-12T17:02:37.118Z,1.70
2023-01-12T17:07:40.395Z,1.73
2023-01-12T17:12:57.313Z,1.80
2023-01-12T17:18:06.762Z,2.20
2023-01-12T17:23:09.678Z,1.80
2023-01-12T17:28:12.484Z,1.90
2023-01-12T17:33:17.183Z,1.40
2023-01-12T17:38:22.807Z,1.80
2023-01-12T17:43:25.995Z,3.15
2023-01-12T17:48:31.996Z,1.30
2023-01-12T17:53:35.206Z,1.90
2023-01-12T17:58:41.800Z,1.70
2023-01-12T18:03:52.696Z,1.40
2023-01-12T18:08:59.338Z,1.40
2023-01-12T18:14:09.672Z,1.90
2023-01-12T18:19:15.228Z,1.90
2023-01-12T18:24:18.247Z,2.13
2023-01-12T18:29:21.491Z,1.90
2023-01-12T18:34:25.910Z,1.65
2023-01-12T18:39:29.109Z,2.40
2023-01-12T18:44:53.705Z,1.17
2023-01-12T18:50:24.260Z,1.50
2023-01-12T18:55:27.001Z,1.60
2023-01-12T19:00:29.945Z,1.70
2023-01-12T19:05:53.588Z,1.60
2023-01-12T19:10:56.993Z,1.58
2023-01-12T19:16:25.852Z,1.95
2023-01-12T19:21:49.935Z,1.60
2023-01-12T19:27:23.522Z,1.50
2023-01-12T19:32:29.848Z,1.50
2023-01-12T19:37:36.061Z,1.67
2023-01-12T19:42:57.394Z,1.60
2023-01-12T19:48:00.420Z,1.90
2023-01-12T19:53:09.735Z,1.80
2023-01-12T19:58:13.051Z,2.40
2023-01-12T20:03:28.063Z,2.20
2023-01-12T20:08:33.254Z,2.10
2023-01-12T20:13:38.613Z,1.70
2023-01-12T20:18:46.024Z,1.35
2023-01-12T20:23:50.602Z,1.70
2023-01-12T20:28:57.804Z,1.60
2023-01-12T20:34:02.913Z,1.80
2023-01-12T20:39:11.373Z,1.63
2023-01-12T20:44:17.783Z,1.40
2023-01-12T20:49:22.187Z,1.70
2023-01-12T20:54:54.868Z,1.70
2023-01-12T20:59:57.845Z,1.65
2023-01-12T21:05:04.165Z,1.90
2023-01-12T21:10:11.985Z,3.92
2023-01-12T21:15:17.504Z,1.40
2023-01-12T21:20:24.376Z,1.40
2023-01-12T21:25:45.388Z,1.30
2023-01-12T21:30:56.438Z,1.60
2023-01-12T21:36:12.176Z,1.30
2023-01-12T21:41:55.497Z,1.15
2023-01-12T21:47:00.344Z,1.50
2023-01-12T21:52:05.972Z,1.35
2023-01-12T21:57:13.736Z,1.30
2023-01-12T22:02:17.386Z,1.50
2023-01-12T22:07:20.510Z,1.70
2023-01-12T22:12:25.460Z,2.10
2023-01-12T22:17:31.018Z,1.95
2023-01-12T22:22:35.707Z,1.57
2023-01-12T22:27:41.759Z,1.50
2023-01-12T22:32:45.614Z,1.60
2023-01-12T22:37:49.055Z,1.50
2023-01-12T22:43:13.426Z,1.40
2023-01-12T22:48:16.590Z,1.67
2023-01-12T22:53:19.493Z,1.50
2023-01-12T22:58:30.816Z,1.40
2023-01-12T23:03:36.671Z,1.20
2023-01-12T23:09:05.068Z,1.00
2023-01-12T23:14:18.444Z,0.80
2023-01-12T23:19:21.461Z,1.20
2023-01-12T23:24:24.460Z,0.80
2023-01-12T23:29:30.546Z,0.90
2023-01-12T23:34:33.959Z,1.00
2023-01-12T23:39:36.969Z,0.90
2023-01-12T23:44:41.294Z,1.10
2023-01-12T23:49:44.258Z,0.80
2023-01-12T23:54:47.577Z,0.90
2023-01-12T23:59:51.949Z,0.90
